LOT79 EPWA-RJAA
Flight info
| Callsign | LOT79 |
|---|---|
| Flight time | N/A |
| Altitude | 36000 |
| Route | EVINA DCT KUKAM M66 BABKO DCT KARIL DCT UDROS UN743 GAKSU UN644 ROLIN N644 LAGAS M747 SUBUT T916 LEYLA N161 GASBI/K0887F360 N161 SARIN/K0885S1095 A368 FKG W188 GOVSA W66 DKO W69 HUR B339 LADIX W34 VAPGU W100 ORAVA W201 UNSEK A326 DONVO G597 AGAVO/N0479F360 DCT LANAT Y51 SAMON Y517 ESKAS Y303 ENTAK Y30 SWAMP |
| Aircraft | B772/H-SDE2E3FGHIJ5LORVWXY/LB1D1 |
Departure
| Time | 2026-04-30 21:13 |
|---|---|
| Airport | Warsaw Chopin Airport (EPWA) |
Arrival
| Time | N/A |
|---|---|
| Airport | Narita International Airport (RJAA) |
| Time | Latitude | Longitude | Altitude | Speed | Heading |
|---|---|---|---|---|---|
| 2026-04-30 20:24 | 52.17465 | 20.96754 | 354 ft | 0 kts | 137° |
| 2026-04-30 20:58 | 52.17483 | 20.96726 | 354 ft | 4 kts | 137° |
| 2026-04-30 20:59 | 52.17523 | 20.96673 | 354 ft | 3 kts | 154° |
| 2026-04-30 20:59 | 52.17535 | 20.96666 | 354 ft | 2 kts | 200° |
| 2026-04-30 21:00 | 52.17551 | 20.96689 | 354 ft | 2 kts | 237° |
| 2026-04-30 21:00 | 52.17556 | 20.96701 | 354 ft | 0 kts | 238° |
| 2026-04-30 21:03 | 52.17545 | 20.96674 | 354 ft | 7 kts | 239° |
| 2026-04-30 21:03 | 52.17524 | 20.96617 | 354 ft | 11 kts | 238° |
| 2026-04-30 21:03 | 52.17453 | 20.96455 | 352 ft | 14 kts | 242° |
| 2026-04-30 21:04 | 52.17416 | 20.96400 | 350 ft | 9 kts | 192° |
| 2026-04-30 21:04 | 52.17333 | 20.96449 | 352 ft | 17 kts | 153° |
| 2026-04-30 21:04 | 52.17120 | 20.96634 | 353 ft | 17 kts | 152° |
| 2026-04-30 21:05 | 52.17014 | 20.96726 | 352 ft | 17 kts | 152° |
| 2026-04-30 21:05 | 52.16907 | 20.96819 | 352 ft | 17 kts | 152° |
| 2026-04-30 21:05 | 52.16800 | 20.96911 | 354 ft | 17 kts | 152° |
| 2026-04-30 21:05 | 52.16694 | 20.97004 | 354 ft | 17 kts | 152° |
| 2026-04-30 21:06 | 52.16599 | 20.97087 | 354 ft | 0 kts | 152° |
| 2026-04-30 21:07 | 52.16585 | 20.97099 | 354 ft | 9 kts | 152° |
| 2026-04-30 21:07 | 52.16522 | 20.97154 | 352 ft | 11 kts | 152° |
| 2026-04-30 21:08 | 52.16436 | 20.97229 | 351 ft | 15 kts | 152° |
| 2026-04-30 21:08 | 52.16334 | 20.97319 | 351 ft | 17 kts | 152° |
| 2026-04-30 21:08 | 52.16227 | 20.97412 | 353 ft | 17 kts | 152° |
| 2026-04-30 21:08 | 52.16122 | 20.97504 | 353 ft | 17 kts | 152° |
| 2026-04-30 21:09 | 52.16014 | 20.97598 | 354 ft | 17 kts | 152° |
| 2026-04-30 21:09 | 52.15909 | 20.97690 | 354 ft | 17 kts | 152° |
| 2026-04-30 21:09 | 52.15802 | 20.97783 | 350 ft | 17 kts | 152° |
| 2026-04-30 21:09 | 52.15696 | 20.97878 | 354 ft | 17 kts | 152° |
| 2026-04-30 21:10 | 52.15641 | 20.97937 | 353 ft | 8 kts | 126° |
| 2026-04-30 21:10 | 52.15651 | 20.98026 | 354 ft | 10 kts | 49° |
| 2026-04-30 21:10 | 52.15708 | 20.98083 | 352 ft | 11 kts | 25° |
| 2026-04-30 21:10 | 52.15807 | 20.98158 | 349 ft | 16 kts | 25° |
| 2026-04-30 21:11 | 52.15912 | 20.98236 | 350 ft | 16 kts | 23° |
| 2026-04-30 21:11 | 52.16016 | 20.98312 | 348 ft | 16 kts | 24° |
| 2026-04-30 21:11 | 52.16093 | 20.98356 | 351 ft | 6 kts | 350° |
| 2026-04-30 21:11 | 52.16127 | 20.98300 | 352 ft | 8 kts | 300° |
| 2026-04-30 21:12 | 52.16153 | 20.98212 | 351 ft | 15 kts | 296° |
| 2026-04-30 21:12 | 52.16284 | 20.97745 | 351 ft | 85 kts | 295° |
| 2026-04-30 21:12 | 52.16643 | 20.96471 | 354 ft | 161 kts | 295° |
| 2026-04-30 21:12 | 52.17183 | 20.94572 | 735 ft | 197 kts | 293° |
| 2026-04-30 21:13 | 52.17783 | 20.92380 | 1412 ft | 220 kts | 294° |
| 2026-04-30 21:13 | 52.18303 | 20.90021 | 2122 ft | 226 kts | 276° |
| 2026-04-30 21:13 | 52.18049 | 20.87490 | 2784 ft | 229 kts | 256° |
| 2026-04-30 21:13 | 52.17634 | 20.84950 | 3451 ft | 234 kts | 259° |
| 2026-04-30 21:14 | 52.17123 | 20.82419 | 4060 ft | 241 kts | 240° |
| 2026-04-30 21:14 | 52.15833 | 20.80654 | 4713 ft | 250 kts | 204° |
| 2026-04-30 21:14 | 52.14187 | 20.79706 | 5398 ft | 253 kts | 200° |
| 2026-04-30 21:14 | 52.12491 | 20.78773 | 6032 ft | 261 kts | 200° |
| 2026-04-30 21:15 | 52.10757 | 20.77812 | 6575 ft | 264 kts | 200° |
| 2026-04-30 21:15 | 52.09002 | 20.76826 | 7067 ft | 271 kts | 200° |
| 2026-04-30 21:15 | 52.07181 | 20.75791 | 7398 ft | 284 kts | 200° |
| 2026-04-30 21:15 | 52.05300 | 20.74709 | 7703 ft | 298 kts | 200° |
| 2026-04-30 21:16 | 52.03303 | 20.73552 | 8003 ft | 312 kts | 200° |
| 2026-04-30 21:16 | 52.01207 | 20.72330 | 8312 ft | 327 kts | 200° |
| 2026-04-30 21:16 | 51.99017 | 20.71048 | 8611 ft | 342 kts | 200° |
| 2026-04-30 21:16 | 51.96730 | 20.69706 | 8912 ft | 358 kts | 200° |
| 2026-04-30 21:17 | 51.94341 | 20.68302 | 9213 ft | 374 kts | 200° |
| 2026-04-30 21:17 | 51.91849 | 20.66838 | 9525 ft | 384 kts | 200° |
| 2026-04-30 21:17 | 51.89324 | 20.65355 | 9868 ft | 389 kts | 200° |
| 2026-04-30 21:17 | 51.86775 | 20.63858 | 10193 ft | 390 kts | 200° |
| 2026-04-30 21:18 | 51.84216 | 20.62356 | 10485 ft | 392 kts | 200° |
| 2026-04-30 21:18 | 51.81636 | 20.60844 | 10787 ft | 395 kts | 200° |
| 2026-04-30 21:18 | 51.79046 | 20.59328 | 11082 ft | 397 kts | 199° |
| 2026-04-30 21:18 | 51.76439 | 20.57804 | 11380 ft | 400 kts | 200° |
| 2026-04-30 21:19 | 51.73818 | 20.56274 | 11675 ft | 402 kts | 199° |
| 2026-04-30 21:19 | 51.71170 | 20.54730 | 12005 ft | 405 kts | 199° |
| 2026-04-30 21:19 | 51.68520 | 20.53185 | 12363 ft | 407 kts | 199° |
| 2026-04-30 21:19 | 51.65850 | 20.51632 | 12729 ft | 410 kts | 199° |
| 2026-04-30 21:20 | 51.63156 | 20.50067 | 13097 ft | 413 kts | 199° |
| 2026-04-30 21:20 | 51.60447 | 20.48495 | 13476 ft | 416 kts | 199° |
| 2026-04-30 21:20 | 51.57711 | 20.46909 | 13855 ft | 420 kts | 199° |
| 2026-04-30 21:20 | 51.54948 | 20.45310 | 14233 ft | 423 kts | 199° |
| 2026-04-30 21:21 | 51.52179 | 20.43710 | 14572 ft | 426 kts | 199° |
| 2026-04-30 21:21 | 51.49375 | 20.42090 | 14914 ft | 429 kts | 199° |
| 2026-04-30 21:21 | 51.43725 | 20.38833 | 15614 ft | 434 kts | 199° |
| 2026-04-30 21:22 | 51.40877 | 20.37195 | 15966 ft | 437 kts | 198° |
| 2026-04-30 21:22 | 51.32167 | 20.32474 | 17053 ft | 444 kts | 196° |
| 2026-04-30 21:23 | 51.29211 | 20.30970 | 17426 ft | 447 kts | 195° |
| 2026-04-30 21:23 | 51.26284 | 20.29481 | 17793 ft | 449 kts | 196° |
| 2026-04-30 21:23 | 51.20315 | 20.26424 | 18564 ft | 454 kts | 195° |
| 2026-04-30 21:24 | 51.17243 | 20.24844 | 18918 ft | 458 kts | 195° |
| 2026-04-30 21:24 | 51.14239 | 20.23297 | 19251 ft | 462 kts | 195° |
| 2026-04-30 21:24 | 51.11127 | 20.21695 | 19603 ft | 466 kts | 195° |
| 2026-04-30 21:24 | 51.08031 | 20.20103 | 19960 ft | 470 kts | 195° |
| 2026-04-30 21:25 | 51.01793 | 20.16904 | 20652 ft | 478 kts | 195° |
| 2026-04-30 21:25 | 50.98624 | 20.15282 | 21019 ft | 481 kts | 195° |
| 2026-04-30 21:25 | 50.95429 | 20.13649 | 21377 ft | 484 kts | 195° |
| 2026-04-30 21:26 | 50.88985 | 20.10363 | 22123 ft | 490 kts | 195° |
| 2026-04-30 21:26 | 50.85730 | 20.08707 | 22507 ft | 492 kts | 195° |
| 2026-04-30 21:27 | 50.79174 | 20.05380 | 23274 ft | 497 kts | 195° |
| 2026-04-30 21:27 | 50.75879 | 20.03708 | 23652 ft | 500 kts | 195° |
| 2026-04-30 21:27 | 50.72561 | 20.02025 | 24033 ft | 502 kts | 194° |
| 2026-04-30 21:28 | 50.65880 | 19.98643 | 24697 ft | 505 kts | 194° |
| 2026-04-30 21:28 | 50.62536 | 19.96953 | 25040 ft | 507 kts | 194° |
| 2026-04-30 21:28 | 50.55792 | 19.93550 | 25708 ft | 510 kts | 194° |
| 2026-04-30 21:29 | 50.52418 | 19.91853 | 26053 ft | 512 kts | 193° |
| 2026-04-30 21:29 | 50.42194 | 19.86725 | 27117 ft | 515 kts | 193° |
| 2026-04-30 21:30 | 50.35334 | 19.83298 | 27757 ft | 520 kts | 193° |
| 2026-04-30 21:31 | 50.24969 | 19.78142 | 28566 ft | 529 kts | 192° |
| 2026-04-30 21:31 | 50.17859 | 19.74618 | 29139 ft | 534 kts | 192° |
| 2026-04-30 21:32 | 50.10734 | 19.71095 | 29712 ft | 539 kts | 192° |
| 2026-04-30 21:32 | 50.07151 | 19.69326 | 30010 ft | 541 kts | 192° |
| 2026-04-30 21:32 | 50.03555 | 19.67555 | 30293 ft | 543 kts | 192° |
| 2026-04-30 21:32 | 49.99938 | 19.65777 | 30567 ft | 545 kts | 192° |
| 2026-04-30 21:33 | 49.96319 | 19.64000 | 30808 ft | 546 kts | 192° |
| 2026-04-30 21:33 | 49.89065 | 19.60446 | 31307 ft | 548 kts | 192° |
| 2026-04-30 21:33 | 49.85415 | 19.58662 | 31563 ft | 549 kts | 192° |
| 2026-04-30 21:34 | 49.81767 | 19.56881 | 31812 ft | 549 kts | 193° |
| 2026-04-30 21:34 | 49.75521 | 19.53839 | 32267 ft | 549 kts | 193° |
| 2026-04-30 21:34 | 49.71829 | 19.52044 | 32517 ft | 548 kts | 193° |
| 2026-04-30 21:35 | 49.68225 | 19.50548 | 32744 ft | 539 kts | 183° |
| 2026-04-30 21:35 | 49.64546 | 19.50416 | 33009 ft | 522 kts | 165° |
| 2026-04-30 21:35 | 49.61094 | 19.51769 | 33301 ft | 504 kts | 150° |
| 2026-04-30 21:35 | 49.57975 | 19.54082 | 33574 ft | 492 kts | 141° |
| 2026-04-30 21:36 | 49.55211 | 19.57055 | 33819 ft | 479 kts | 129° |
| 2026-04-30 21:36 | 49.53000 | 19.60719 | 34091 ft | 463 kts | 122° |
| 2026-04-30 21:37 | 49.46660 | 19.71939 | 34842 ft | 463 kts | 124° |
| 2026-04-30 21:37 | 49.44516 | 19.75646 | 35041 ft | 464 kts | 124° |
| 2026-04-30 21:37 | 49.42364 | 19.79344 | 35229 ft | 464 kts | 124° |
| 2026-04-30 21:37 | 49.40207 | 19.83034 | 35419 ft | 465 kts | 125° |
| 2026-04-30 21:38 | 49.38043 | 19.86728 | 35611 ft | 466 kts | 125° |
| 2026-04-30 21:38 | 49.35881 | 19.90410 | 35800 ft | 466 kts | 125° |
| 2026-04-30 21:38 | 49.33704 | 19.94113 | 35980 ft | 466 kts | 125° |
| 2026-04-30 21:38 | 49.31535 | 19.97798 | 36179 ft | 466 kts | 126° |
| 2026-04-30 21:39 | 49.29365 | 20.01481 | 36285 ft | 468 kts | 126° |
| 2026-04-30 21:39 | 49.27174 | 20.05198 | 36338 ft | 471 kts | 126° |
| 2026-04-30 21:39 | 49.22776 | 20.12644 | 36353 ft | 477 kts | 126° |
| 2026-04-30 21:40 | 49.18296 | 20.20199 | 36365 ft | 483 kts | 126° |
| 2026-04-30 21:40 | 49.13756 | 20.27832 | 36358 ft | 486 kts | 127° |
| 2026-04-30 21:41 | 49.09180 | 20.35504 | 36362 ft | 491 kts | 127° |
| 2026-04-30 21:41 | 49.04560 | 20.43227 | 36365 ft | 495 kts | 127° |
| 2026-04-30 21:42 | 48.99936 | 20.50933 | 36355 ft | 497 kts | 127° |
| 2026-04-30 21:42 | 48.95262 | 20.58699 | 36375 ft | 496 kts | 127° |
| 2026-04-30 21:43 | 48.91399 | 20.65090 | 36373 ft | 487 kts | 127° |
| 2026-04-30 21:43 | 48.86092 | 20.73856 | 36381 ft | 483 kts | 127° |